createdAt,value
2024-04-21T00:01:20.972Z,1.80
2024-04-21T00:03:48.213Z,1.90
2024-04-21T00:06:15.220Z,1.98
2024-04-21T00:08:41.840Z,1.75
2024-04-21T00:11:08.587Z,1.92
2024-04-21T00:13:35.416Z,1.95
2024-04-21T00:16:02.166Z,1.83
2024-04-21T00:18:29.044Z,1.90
2024-04-21T00:20:55.813Z,2.28
2024-04-21T00:23:22.391Z,2.97
2024-04-21T00:26:01.481Z,2.47
2024-04-21T00:28:31.285Z,2.78
2024-04-21T00:30:58.498Z,2.33
2024-04-21T00:33:25.287Z,2.30
2024-04-21T00:35:51.953Z,2.33
2024-04-21T00:38:18.540Z,2.00
2024-04-21T00:40:45.191Z,2.17
2024-04-21T00:43:12.034Z,2.65
2024-04-21T00:45:44.553Z,2.42
2024-04-21T00:48:12.912Z,3.05
2024-04-21T00:50:41.602Z,2.38
2024-04-21T00:53:09.468Z,2.67
2024-04-21T00:55:36.189Z,2.17
2024-04-21T00:58:03.945Z,1.85
2024-04-21T01:00:30.979Z,2.20
2024-04-21T01:02:57.648Z,1.95
2024-04-21T01:05:24.240Z,1.77
2024-04-21T01:07:50.885Z,1.50
2024-04-21T01:10:17.637Z,1.50
2024-04-21T01:12:44.484Z,1.63
2024-04-21T01:15:11.179Z,1.38
2024-04-21T01:17:38.592Z,1.40
2024-04-21T01:20:05.733Z,1.40
2024-04-21T01:22:32.292Z,1.60
2024-04-21T01:24:58.927Z,1.30
2024-04-21T01:27:25.671Z,1.15
2024-04-21T01:29:52.240Z,1.40
2024-04-21T01:32:20.334Z,1.67
2024-04-21T01:34:47.300Z,1.45
2024-04-21T01:37:17.659Z,1.83
2024-04-21T01:39:44.416Z,1.30
2024-04-21T01:42:11.045Z,1.40
2024-04-21T01:44:37.608Z,1.33
2024-04-21T01:47:04.498Z,1.80
2024-04-21T01:49:31.125Z,1.35
2024-04-21T01:51:57.729Z,1.50
2024-04-21T01:54:24.327Z,1.40
2024-04-21T01:56:52.087Z,1.60
2024-04-21T01:59:18.967Z,1.20
2024-04-21T02:01:45.676Z,1.30
2024-04-21T02:04:12.368Z,1.50
2024-04-21T02:06:40.330Z,1.50
2024-04-21T02:09:07.096Z,1.50
2024-04-21T02:11:33.630Z,1.77
2024-04-21T02:14:00.174Z,1.42
2024-04-21T02:16:26.882Z,1.60
2024-04-21T02:18:53.448Z,1.50
2024-04-21T02:21:20.085Z,1.45
2024-04-21T02:23:49.820Z,1.30
2024-04-21T02:26:16.402Z,1.88
2024-04-21T02:28:43.396Z,1.40
2024-04-21T02:31:10.309Z,1.30
2024-04-21T02:33:38.314Z,1.55
2024-04-21T02:36:05.546Z,1.30
2024-04-21T02:38:32.675Z,1.50
2024-04-21T02:40:59.343Z,1.35
2024-04-21T02:43:25.945Z,1.60
2024-04-21T02:45:52.857Z,1.50
2024-04-21T02:48:19.457Z,1.60
2024-04-21T02:50:46.490Z,1.25
2024-04-21T02:53:13.213Z,1.60
2024-04-21T02:55:43.684Z,1.80
2024-04-21T02:58:10.381Z,1.52
2024-04-21T03:00:40.352Z,1.70
2024-04-21T03:03:07.275Z,1.70
2024-04-21T03:05:34.058Z,1.90
2024-04-21T03:08:00.949Z,1.63
2024-04-21T03:10:27.665Z,1.80
2024-04-21T03:12:54.520Z,1.48
2024-04-21T03:15:21.186Z,1.80
2024-04-21T03:17:47.842Z,2.10
2024-04-21T03:20:14.813Z,2.00
2024-04-21T03:22:41.400Z,1.63
2024-04-21T03:25:08.075Z,2.08
2024-04-21T03:27:34.856Z,2.55
2024-04-21T03:30:01.668Z,1.80
2024-04-21T03:32:28.374Z,1.90
2024-04-21T03:34:57.271Z,2.60
2024-04-21T03:37:23.968Z,2.30
2024-04-21T03:39:50.683Z,2.20
2024-04-21T03:42:17.676Z,1.90
2024-04-21T03:44:44.444Z,1.92
2024-04-21T03:47:11.054Z,2.13
2024-04-21T03:49:37.660Z,2.17
2024-04-21T03:52:04.625Z,2.05
2024-04-21T03:54:31.357Z,2.00
2024-04-21T03:56:58.095Z,2.15
2024-04-21T03:59:24.699Z,1.70
2024-04-21T04:01:51.400Z,1.90
2024-04-21T04:04:18.161Z,2.28
2024-04-21T04:06:44.795Z,1.73
2024-04-21T04:09:11.379Z,2.47
2024-04-21T04:11:38.375Z,2.25
2024-04-21T04:14:05.022Z,2.40
2024-04-21T04:16:31.588Z,2.10
2024-04-21T04:18:58.282Z,2.08
2024-04-21T04:21:25.070Z,2.17
2024-04-21T04:23:51.973Z,1.98
2024-04-21T04:26:18.530Z,2.42
2024-04-21T04:28:45.123Z,1.60
2024-04-21T04:31:11.915Z,2.40
2024-04-21T04:33:38.575Z,2.20
2024-04-21T04:36:05.621Z,1.90
2024-04-21T04:38:32.186Z,2.47
2024-04-21T04:40:58.790Z,2.20
2024-04-21T04:43:25.433Z,2.38
2024-04-21T04:45:52.041Z,2.45
2024-04-21T04:48:18.878Z,2.67
2024-04-21T04:50:45.502Z,2.20
2024-04-21T04:53:12.066Z,2.47
2024-04-21T04:55:38.727Z,2.28
2024-04-21T04:58:05.426Z,2.15
2024-04-21T05:00:32.016Z,2.53
2024-04-21T05:02:58.650Z,2.80
2024-04-21T05:05:25.302Z,2.30
2024-04-21T05:07:51.892Z,2.08
2024-04-21T05:10:18.562Z,2.58
2024-04-21T05:12:47.379Z,2.42
2024-04-21T05:15:14.016Z,2.65
2024-04-21T05:17:40.698Z,2.40
2024-04-21T05:20:08.207Z,2.88
2024-04-21T05:22:35.894Z,2.50
2024-04-21T05:25:02.551Z,2.72
2024-04-21T05:27:30.890Z,2.55
2024-04-21T05:29:58.685Z,2.47
2024-04-21T05:32:27.690Z,2.50
2024-04-21T05:34:54.375Z,2.60
2024-04-21T05:37:21.236Z,2.83
2024-04-21T05:39:47.880Z,2.17
2024-04-21T05:42:14.537Z,2.70
2024-04-21T05:44:41.091Z,2.30
2024-04-21T05:47:07.683Z,2.65
2024-04-21T05:49:34.301Z,2.50
2024-04-21T05:52:00.893Z,2.80
2024-04-21T05:54:30.092Z,2.65
2024-04-21T05:56:56.689Z,2.25
2024-04-21T05:59:27.401Z,2.33
2024-04-21T06:01:55.446Z,2.50
2024-04-21T06:04:22.113Z,2.70
2024-04-21T06:06:52.126Z,2.35
2024-04-21T06:09:18.828Z,2.20
2024-04-21T06:11:45.456Z,2.67
2024-04-21T06:14:12.099Z,2.50
2024-04-21T06:16:38.715Z,2.40
2024-04-21T06:19:07.204Z,2.30
2024-04-21T06:21:33.866Z,2.60
2024-04-21T06:24:00.429Z,2.40
2024-04-21T06:26:27.056Z,2.97
2024-04-21T06:28:53.634Z,2.60
2024-04-21T06:31:20.532Z,2.20
2024-04-21T06:33:48.648Z,2.90
2024-04-21T06:36:15.322Z,2.47
2024-04-21T06:38:42.035Z,2.20
2024-04-21T06:41:08.972Z,2.63
2024-04-21T06:43:35.545Z,2.17
2024-04-21T06:46:02.157Z,2.10
2024-04-21T06:48:28.883Z,2.28
2024-04-21T06:50:55.471Z,2.50
2024-04-21T06:53:22.091Z,2.33
2024-04-21T06:55:49.152Z,2.67
2024-04-21T06:58:16.038Z,2.55
2024-04-21T07:00:42.832Z,2.08
2024-04-21T07:03:10.015Z,2.50
2024-04-21T07:05:37.948Z,2.25
2024-04-21T07:08:04.831Z,2.60
2024-04-21T07:10:31.493Z,2.33
2024-04-21T07:12:58.156Z,3.15
2024-04-21T07:15:24.827Z,2.30
2024-04-21T07:17:51.871Z,3.03
2024-04-21T07:20:22.245Z,2.67
2024-04-21T07:22:49.283Z,2.95
2024-04-21T07:25:22.484Z,2.50
2024-04-21T07:27:51.912Z,2.53
2024-04-21T07:30:18.618Z,2.35
2024-04-21T07:32:45.280Z,2.95
2024-04-21T07:35:11.840Z,2.40
2024-04-21T07:37:38.476Z,2.22
2024-04-21T07:40:06.100Z,1.90
2024-04-21T07:42:33.010Z,2.42
2024-04-21T07:44:59.658Z,2.45
2024-04-21T07:47:26.560Z,2.33
2024-04-21T07:49:53.155Z,2.10
2024-04-21T07:52:19.882Z,2.20
2024-04-21T07:54:46.512Z,2.70
2024-04-21T07:57:14.908Z,2.20
2024-04-21T07:59:41.610Z,1.92
2024-04-21T08:02:08.290Z,2.25
2024-04-21T08:04:34.914Z,2.00
2024-04-21T08:07:01.751Z,2.72
2024-04-21T08:09:30.976Z,2.10
2024-04-21T08:11:58.486Z,2.05
2024-04-21T08:14:25.234Z,2.28
2024-04-21T08:16:51.902Z,2.22
2024-04-21T08:19:18.461Z,2.10
2024-04-21T08:21:45.090Z,2.15
2024-04-21T08:24:11.673Z,2.20
2024-04-21T08:26:38.250Z,2.13
2024-04-21T08:29:04.812Z,2.30
2024-04-21T08:31:31.793Z,2.60
2024-04-21T08:33:59.932Z,2.13
2024-04-21T08:36:26.625Z,1.67
2024-04-21T08:38:53.230Z,1.85
2024-04-21T08:41:22.572Z,2.22
2024-04-21T08:43:50.104Z,2.40
2024-04-21T08:46:17.319Z,2.05
2024-04-21T08:48:44.383Z,1.65
2024-04-21T08:51:11.628Z,1.88
2024-04-21T08:53:41.435Z,2.33
2024-04-21T08:56:28.744Z,1.98
2024-04-21T08:58:55.744Z,2.05
2024-04-21T09:01:25.314Z,2.03
2024-04-21T09:03:52.325Z,2.10
2024-04-21T09:06:25.084Z,2.28
2024-04-21T09:08:52.746Z,1.77
2024-04-21T09:11:19.416Z,1.88
2024-04-21T09:13:45.988Z,2.10
2024-04-21T09:16:12.674Z,2.42
2024-04-21T09:18:39.377Z,2.20
2024-04-21T09:21:06.081Z,1.92
2024-04-21T09:23:33.916Z,2.40
2024-04-21T09:26:00.588Z,2.63
2024-04-21T09:28:27.244Z,2.80
2024-04-21T09:30:53.890Z,1.88
2024-04-21T09:33:21.735Z,1.80
2024-04-21T09:35:48.404Z,2.03
2024-04-21T09:38:16.358Z,1.80
2024-04-21T09:40:43.288Z,1.60
2024-04-21T09:43:10.083Z,1.55
2024-04-21T09:45:36.892Z,1.60
2024-04-21T09:48:06.671Z,2.13
2024-04-21T09:50:33.340Z,1.95
2024-04-21T09:53:02.159Z,1.77
2024-04-21T09:55:29.077Z,1.67
2024-04-21T09:58:02.671Z,1.85
2024-04-21T10:00:32.770Z,1.40
2024-04-21T10:03:02.286Z,1.50
2024-04-21T10:05:29.148Z,1.50
2024-04-21T10:07:58.521Z,2.30
2024-04-21T10:10:26.354Z,1.70
2024-04-21T10:12:56.105Z,1.92
2024-04-21T10:15:23.196Z,1.80
2024-04-21T10:17:57.482Z,2.00
2024-04-21T10:20:35.318Z,2.65
2024-04-21T10:23:03.210Z,1.70
2024-04-21T10:25:36.456Z,1.88
2024-04-21T10:28:10.697Z,2.17
2024-04-21T10:30:37.984Z,1.70
2024-04-21T10:33:11.291Z,2.15
2024-04-21T10:35:39.329Z,1.90
2024-04-21T10:38:06.861Z,1.77
2024-04-21T10:40:36.634Z,1.75
2024-04-21T10:43:03.751Z,1.88
2024-04-21T10:45:33.134Z,1.52
2024-04-21T10:48:00.738Z,1.55
2024-04-21T10:50:28.804Z,1.52
2024-04-21T10:52:55.820Z,1.60
2024-04-21T10:55:22.976Z,1.40
2024-04-21T10:57:50.244Z,1.25
2024-04-21T11:00:16.900Z,1.45
2024-04-21T11:02:43.637Z,1.15
2024-04-21T11:05:11.166Z,1.40
2024-04-21T11:07:37.961Z,1.33
2024-04-21T11:10:04.896Z,1.60
2024-04-21T11:12:33.476Z,1.40
2024-04-21T11:15:00.582Z,1.17
2024-04-21T11:17:27.708Z,1.20
2024-04-21T11:19:54.848Z,1.20
2024-04-21T11:22:22.192Z,1.05
2024-04-21T11:24:49.135Z,1.20
2024-04-21T11:27:17.963Z,1.20
2024-04-21T11:29:47.514Z,1.45
2024-04-21T11:32:15.155Z,1.20
2024-04-21T11:34:41.977Z,1.48
2024-04-21T11:37:20.828Z,1.60
2024-04-21T11:39:47.513Z,1.40
2024-04-21T11:42:14.077Z,1.90
2024-04-21T11:44:42.410Z,1.50
2024-04-21T11:47:09.059Z,1.77
2024-04-21T11:49:35.735Z,1.65
2024-04-21T11:52:02.451Z,2.05
2024-04-21T11:54:29.153Z,1.45
2024-04-21T11:56:56.131Z,1.30
2024-04-21T11:59:22.712Z,1.45
2024-04-21T12:01:50.566Z,1.30
2024-04-21T12:04:17.805Z,1.20
2024-04-21T12:06:44.703Z,1.25
2024-04-21T12:09:11.295Z,1.50
2024-04-21T12:11:38.088Z,1.30
2024-04-21T12:14:17.035Z,1.30
2024-04-21T12:16:43.774Z,1.00
2024-04-21T12:19:10.724Z,0.90
2024-04-21T12:21:37.388Z,1.02
2024-04-21T12:24:04.112Z,1.10
2024-04-21T12:26:30.652Z,1.08
2024-04-21T12:28:57.234Z,1.30
2024-04-21T12:31:24.138Z,1.00
2024-04-21T12:33:50.721Z,1.10
2024-04-21T12:36:17.325Z,0.95
2024-04-21T12:38:44.001Z,1.27
2024-04-21T12:41:10.824Z,0.85
2024-04-21T12:43:37.389Z,1.00
2024-04-21T12:46:04.276Z,1.00
2024-04-21T12:48:30.988Z,0.90
2024-04-21T12:50:57.643Z,1.15
2024-04-21T12:53:24.471Z,1.30
2024-04-21T12:55:51.018Z,1.30
2024-04-21T12:58:17.610Z,1.80
2024-04-21T13:00:44.270Z,1.60
2024-04-21T13:03:14.750Z,2.00
2024-04-21T13:05:41.724Z,1.50
2024-04-21T13:08:08.355Z,1.42
2024-04-21T13:10:35.079Z,1.48
2024-04-21T13:13:01.994Z,1.40
2024-04-21T13:15:28.613Z,1.30
2024-04-21T13:17:56.272Z,1.27
2024-04-21T13:20:23.141Z,1.20
2024-04-21T13:22:49.690Z,1.10
2024-04-21T13:25:16.327Z,1.17
2024-04-21T13:27:42.992Z,1.15
2024-04-21T13:30:10.375Z,1.10
2024-04-21T13:32:37.719Z,1.00
2024-04-21T13:35:04.807Z,1.00
2024-04-21T13:37:31.416Z,1.10
2024-04-21T13:39:58.001Z,1.23
2024-04-21T13:42:24.762Z,1.30
2024-04-21T13:44:51.330Z,1.23
2024-04-21T13:47:18.076Z,1.65
2024-04-21T13:49:44.931Z,1.60
2024-04-21T13:52:11.587Z,1.50
2024-04-21T13:54:38.575Z,1.45
2024-04-21T13:57:05.795Z,1.40
2024-04-21T13:59:33.210Z,1.30
2024-04-21T14:01:59.780Z,1.55
2024-04-21T14:04:27.294Z,1.58
2024-04-21T14:06:53.934Z,1.80
2024-04-21T14:09:20.470Z,1.83
2024-04-21T14:11:47.122Z,1.50
2024-04-21T14:14:13.673Z,1.45
2024-04-21T14:16:40.373Z,1.48
2024-04-21T14:19:07.171Z,1.65
2024-04-21T14:21:33.762Z,1.30
2024-04-21T14:24:02.270Z,1.40
2024-04-21T14:26:29.425Z,1.50
2024-04-21T14:28:56.026Z,1.40
2024-04-21T14:31:22.621Z,1.40
2024-04-21T14:33:50.128Z,1.17
2024-04-21T14:36:17.754Z,1.38
2024-04-21T14:38:44.563Z,1.23
2024-04-21T14:41:12.643Z,1.20
2024-04-21T14:43:39.331Z,1.60
2024-04-21T14:46:06.006Z,1.60
2024-04-21T14:48:32.592Z,1.50
2024-04-21T14:51:00.987Z,2.05
2024-04-21T14:53:27.882Z,1.52
2024-04-21T14:55:58.587Z,1.55
2024-04-21T14:58:25.402Z,1.67
2024-04-21T15:00:52.057Z,1.40
2024-04-21T15:03:18.673Z,1.73
2024-04-21T15:05:45.430Z,1.80
2024-04-21T15:08:12.088Z,1.60
2024-04-21T15:10:38.714Z,1.70
2024-04-21T15:13:05.299Z,1.58
2024-04-21T15:15:32.215Z,1.63
2024-04-21T15:18:00.305Z,1.70
2024-04-21T15:20:26.998Z,1.90
2024-04-21T15:22:53.614Z,2.60
2024-04-21T15:25:21.274Z,1.50
2024-04-21T15:27:50.361Z,1.45
2024-04-21T15:30:18.974Z,1.50
2024-04-21T15:32:47.522Z,1.80
2024-04-21T15:35:14.811Z,1.48
2024-04-21T15:37:42.992Z,1.48
2024-04-21T15:40:17.564Z,1.50
2024-04-21T15:42:44.286Z,1.58
2024-04-21T15:45:11.070Z,1.38
2024-04-21T15:47:38.116Z,1.40
2024-04-21T15:50:05.659Z,1.63
2024-04-21T15:52:32.587Z,2.13
2024-04-21T15:55:01.038Z,1.70
2024-04-21T15:57:28.847Z,1.75
2024-04-21T15:59:55.437Z,1.90
2024-04-21T16:02:22.014Z,1.73
2024-04-21T16:04:48.712Z,1.40
2024-04-21T16:07:15.341Z,1.70
2024-04-21T16:09:42.031Z,1.67
2024-04-21T16:12:09.003Z,1.70
2024-04-21T16:14:35.536Z,1.80
2024-04-21T16:17:02.195Z,1.77
2024-04-21T16:19:29.683Z,1.77
2024-04-21T16:21:56.367Z,1.50
2024-04-21T16:24:23.018Z,1.48
2024-04-21T16:26:49.575Z,1.30
2024-04-21T16:29:16.223Z,1.55
2024-04-21T16:31:43.087Z,1.40
2024-04-21T16:34:09.892Z,1.30
2024-04-21T16:36:36.782Z,1.20
2024-04-21T16:39:03.758Z,1.40
2024-04-21T16:41:30.581Z,1.60
2024-04-21T16:43:57.418Z,1.58
2024-04-21T16:46:24.995Z,1.77
2024-04-21T16:48:53.219Z,1.70
2024-04-21T16:51:20.043Z,1.70
2024-04-21T16:53:47.056Z,1.67
2024-04-21T16:56:14.466Z,1.70
2024-04-21T16:58:46.447Z,1.75
2024-04-21T17:01:14.891Z,1.88
2024-04-21T17:03:42.085Z,1.60
2024-04-21T17:06:11.200Z,1.80
2024-04-21T17:08:38.078Z,1.90
2024-04-21T17:11:04.938Z,1.70
2024-04-21T17:13:31.808Z,1.92
2024-04-21T17:15:58.541Z,1.52
2024-04-21T17:18:25.174Z,1.50
2024-04-21T17:20:51.778Z,1.70
2024-04-21T17:23:18.375Z,1.80
2024-04-21T17:25:44.959Z,2.10
2024-04-21T17:28:11.581Z,1.80
2024-04-21T17:30:38.397Z,1.70
2024-04-21T17:33:05.496Z,1.60
2024-04-21T17:35:32.171Z,1.65
2024-04-21T17:37:59.423Z,1.73
2024-04-21T17:40:27.855Z,1.70
2024-04-21T17:42:56.793Z,1.80
2024-04-21T17:45:38.991Z,1.52
2024-04-21T17:48:07.656Z,2.10
2024-04-21T17:50:34.857Z,1.80
2024-04-21T17:53:01.665Z,1.80
2024-04-21T17:55:28.591Z,2.03
2024-04-21T17:57:56.831Z,2.10
2024-04-21T18:00:23.453Z,1.95
2024-04-21T18:02:50.164Z,2.10
2024-04-21T18:05:17.104Z,2.20
2024-04-21T18:07:44.798Z,1.75
2024-04-21T18:10:12.400Z,1.75
2024-04-21T18:12:39.045Z,1.95
2024-04-21T18:15:05.902Z,1.90
2024-04-21T18:17:32.638Z,1.83
2024-04-21T18:19:59.248Z,1.73
2024-04-21T18:22:25.849Z,1.80
2024-04-21T18:24:52.433Z,2.13
2024-04-21T18:27:19.035Z,1.70
2024-04-21T18:29:45.641Z,1.90
2024-04-21T18:32:12.260Z,2.00
2024-04-21T18:34:38.859Z,2.00
2024-04-21T18:37:05.868Z,1.98
2024-04-21T18:39:32.537Z,2.08
2024-04-21T18:42:01.489Z,2.00
2024-04-21T18:44:28.198Z,2.33
2024-04-21T18:46:54.997Z,2.22
2024-04-21T18:49:22.257Z,1.90
2024-04-21T18:51:49.009Z,2.10
2024-04-21T18:54:15.572Z,2.40
2024-04-21T18:56:42.365Z,2.10
2024-04-21T18:59:08.958Z,2.20
2024-04-21T19:01:35.599Z,2.00
2024-04-21T19:04:02.289Z,2.10
2024-04-21T19:06:28.947Z,2.20
2024-04-21T19:08:55.509Z,2.25
2024-04-21T19:11:22.622Z,3.20
2024-04-21T19:13:49.656Z,3.30
2024-04-21T19:16:16.503Z,2.58
2024-04-21T19:18:43.489Z,2.63
2024-04-21T19:21:10.823Z,2.67
2024-04-21T19:23:38.685Z,2.72
2024-04-21T19:26:05.477Z,2.40
2024-04-21T19:28:34.201Z,2.78
2024-04-21T19:31:00.972Z,2.63
2024-04-21T19:33:27.642Z,2.33
2024-04-21T19:35:54.225Z,2.70
2024-04-21T19:38:20.789Z,2.63
2024-04-21T19:40:49.230Z,2.47
2024-04-21T19:43:17.330Z,2.53
2024-04-21T19:45:43.973Z,2.40
2024-04-21T19:48:11.496Z,2.42
2024-04-21T19:50:38.865Z,2.63
2024-04-21T19:53:05.500Z,2.90
2024-04-21T19:55:32.129Z,2.85
2024-04-21T19:57:58.960Z,2.45
2024-04-21T20:00:26.377Z,2.60
2024-04-21T20:02:52.988Z,2.63
2024-04-21T20:05:19.584Z,2.63
2024-04-21T20:07:46.174Z,2.60
2024-04-21T20:10:12.760Z,3.00
2024-04-21T20:12:39.821Z,2.80
2024-04-21T20:15:25.657Z,2.83
2024-04-21T20:18:11.065Z,2.70
2024-04-21T20:20:37.755Z,2.60
2024-04-21T20:23:04.473Z,2.50
2024-04-21T20:25:35.759Z,2.75
2024-04-21T20:28:02.468Z,2.50
2024-04-21T20:30:32.706Z,2.50
2024-04-21T20:32:59.570Z,2.70
2024-04-21T20:35:26.138Z,2.80
2024-04-21T20:37:55.410Z,2.80
2024-04-21T20:40:22.356Z,2.55
2024-04-21T20:42:48.938Z,2.55
2024-04-21T20:45:15.626Z,2.63
2024-04-21T20:47:42.424Z,2.58
2024-04-21T20:50:09.104Z,2.42
2024-04-21T20:52:35.897Z,2.50
2024-04-21T20:55:02.531Z,3.10
2024-04-21T20:57:31.549Z,3.33
2024-04-21T20:59:58.700Z,2.92
2024-04-21T21:02:25.418Z,2.60
2024-04-21T21:04:52.015Z,2.45
2024-04-21T21:07:18.630Z,2.85
2024-04-21T21:09:45.245Z,2.72
2024-04-21T21:12:11.829Z,2.67
2024-04-21T21:14:39.201Z,2.40
2024-04-21T21:17:05.829Z,2.72
2024-04-21T21:19:32.441Z,2.88
2024-04-21T21:21:59.394Z,2.60
2024-04-21T21:24:26.143Z,2.60
2024-04-21T21:26:53.306Z,2.40
2024-04-21T21:29:19.992Z,2.53
2024-04-21T21:31:46.750Z,2.70
2024-04-21T21:34:13.412Z,2.72
2024-04-21T21:36:39.976Z,2.60
2024-04-21T21:39:06.531Z,2.97
2024-04-21T21:41:33.084Z,2.60
2024-04-21T21:43:59.737Z,2.60
2024-04-21T21:46:27.699Z,2.90
2024-04-21T21:48:54.279Z,2.92
2024-04-21T21:51:21.133Z,2.90
2024-04-21T21:53:47.690Z,2.90
2024-04-21T21:56:14.257Z,3.25
2024-04-21T21:58:41.010Z,2.70
2024-04-21T22:01:08.210Z,2.90
2024-04-21T22:03:34.956Z,3.15
2024-04-21T22:06:01.578Z,2.80
2024-04-21T22:08:28.320Z,3.28
2024-04-21T22:10:55.042Z,3.20
2024-04-21T22:13:21.713Z,3.00
2024-04-21T22:15:48.367Z,2.92
2024-04-21T22:18:18.977Z,3.15
2024-04-21T22:20:46.514Z,3.45
2024-04-21T22:23:13.083Z,3.20
2024-04-21T22:25:45.605Z,2.95
2024-04-21T22:28:12.191Z,3.28
2024-04-21T22:30:38.773Z,2.65
2024-04-21T22:33:05.672Z,2.63
2024-04-21T22:35:32.480Z,2.97
2024-04-21T22:37:59.445Z,3.40
2024-04-21T22:40:26.084Z,3.10
2024-04-21T22:42:52.692Z,3.25
2024-04-21T22:45:19.361Z,3.10
2024-04-21T22:47:45.946Z,3.13
2024-04-21T22:50:12.654Z,2.90
2024-04-21T22:52:39.402Z,2.67
2024-04-21T22:55:06.436Z,2.95
2024-04-21T22:57:33.027Z,3.05
2024-04-21T22:59:59.757Z,2.80
2024-04-21T23:02:26.607Z,2.60
2024-04-21T23:04:54.163Z,3.10
2024-04-21T23:07:20.745Z,2.97
2024-04-21T23:09:47.392Z,3.35
2024-04-21T23:12:13.975Z,3.10
2024-04-21T23:14:40.564Z,3.13
2024-04-21T23:17:07.106Z,3.15
2024-04-21T23:19:33.725Z,3.47
2024-04-21T23:22:00.330Z,2.83
2024-04-21T23:24:26.944Z,3.08
2024-04-21T23:26:53.500Z,2.92
2024-04-21T23:29:20.108Z,3.10
2024-04-21T23:31:46.746Z,2.88
2024-04-21T23:34:13.403Z,2.85
2024-04-21T23:36:39.971Z,3.17
2024-04-21T23:39:06.616Z,3.40
2024-04-21T23:41:33.227Z,3.05
2024-04-21T23:43:59.810Z,2.90
2024-04-21T23:46:29.315Z,3.13
2024-04-21T23:48:55.871Z,3.30
2024-04-21T23:51:22.731Z,3.22
2024-04-21T23:53:49.288Z,3.05
2024-04-21T23:56:16.508Z,3.40
2024-04-21T23:58:43.416Z,3.20
